KRSW/RSW METAR and TAF weather

Enter ICAO airport designator
Station Type Date Time Source
KRSW METAR 2019/04/21 21:53 UTC NOAA

KRSW 212153Z 36005KT 10SM CLR 25/08 A3008 RMK AO2 SLP185 T02500083


Station Type Date Time Source
KRSW Decoded METAR 2019/04/21 21:53 UTC NOAA

FORT MYERS SW FL INTERNATIONAL AIRPORT , FL, United States (KRSW) 26-32N 081-46W 9M
Apr 21, 2019 - 05:53 PM EDT / 2019.04.21 2153 UTC
Wind: from the N (360 degrees) at 6 MPH (5 KT):0
Visibility: 10 mile(s):0
Sky conditions: clear
Temperature: 77.0 F (25.0 C)
Dew Point: 46.9 F (8.3 C)
Relative Humidity: 34%
Pressure (altimeter): 30.08 in. Hg (1018 hPa)
ob: KRSW 212153Z 36005KT 10SM CLR 25/08 A3008 RMK AO2 SLP185 T02500083
cycle: 22

Station Type Date Time Source
KRSW TAF 2019/04/21 18:24 UTC NOAA

TAF KRSW 211721Z 2118/2218 33010KT P6SM SKC
FM220200 VRB04KT P6SM SKC
FM221400 08007KT P6SM SKC

Example: see airport list